Flight Track Log - Related Links

Times and Time Zones

All times are in EDT time to prevent confusion due to time zone crossing. See the N4998J flight status page for this flight to view local times or setup timezone preferences in your user account.

Time Position Orientation Groundspeed Altitude Reporting Facility
EDT Latitude Longitude Course Direction KTS MPH feet Rate Location/Type
Sun 03:25:14 PM 43.1167 -78.9333 36° Northeast 82 94 900  Level Buffalo TRACON
Sun 03:26:02 PM 43.1333 -78.9167 36° Northeast 67 77 1,500 579 Climbing Buffalo TRACON
Sun 03:27:08 PM 43.1333 -78.8833 90° East 88 101 2,000 400 Climbing Buffalo TRACON
Sun 03:28:02 PM 43.1167 -78.8667 144° Southeast 96 110 2,300 421 Climbing Buffalo TRACON
Sun 03:29:02 PM 43.0833 -78.8500 160° South 90 104 2,800 450 Climbing Buffalo TRACON
Sun 03:30:02 PM 43.0667 -78.8333 144° Southeast 92 106 3,200 500 Climbing Buffalo TRACON
Sun 03:31:02 PM 43.0333 -78.8333 180° South 95 109 3,800 667 Climbing Buffalo TRACON
Sun 03:32:08 PM 43.0167 -78.8167 144° Southeast 98 113 4,600 632 Climbing Buffalo TRACON
Sun 03:32:56 PM 42.9833 -78.8167 180° South 94 108 5,000 456 Climbing Buffalo TRACON
Sun 03:33:27 PM 42.9781 -78.8142 161° South 94 108 5,200 452 Climbing Cleveland Center
Sun 03:34:29 PM 42.9500 -78.8128 178° South 94 108 5,700 532 Climbing Cleveland Center
Sun 03:35:31 PM 42.9208 -78.8069 172° South 99 114 6,300 532 Climbing Cleveland Center
Sun 03:36:33 PM 42.8922 -78.8056 178° South 99 114 6,800 435 Climbing Cleveland Center
Sun 03:37:35 PM 42.8642 -78.7922 161° South 99 114 7,200 387 Climbing Cleveland Center
Sun 03:38:37 PM 42.8369 -78.7836 167° South 100 115 7,600 384 Climbing Cleveland Center
Sun 03:39:40 PM 42.8067 -78.7794 174° South 103 119 8,000 192 Climbing Cleveland Center
Sun 03:40:42 PM 42.7711 -78.7772 177° South 118 136 8,000  Level Cleveland Center
Sun 03:41:44 PM 42.7303 -78.7619 165° South 142 163 8,000  Level Cleveland Center
Sun 03:42:46 PM 42.6892 -78.7536 172° South 142 163 8,000  Level Cleveland Center
Sun 03:43:48 PM 42.6472 -78.7486 175° South 143 165 8,000  Level Cleveland Center
Sun 03:44:50 PM 42.6067 -78.7344 166° South 143 165 8,000  Level Cleveland Center
Sun 03:45:52 PM 42.5683 -78.7242 169° South 144 166 8,000  Level Cleveland Center
Sun 03:46:54 PM 42.5278 -78.7150 171° South 142 163 8,000  Level Cleveland Center
Sun 03:47:56 PM 42.4875 -78.7058 170° South 142 163 8,000  Level Cleveland Center
Sun 03:48:58 PM 42.4450 -78.6958 170° South 143 165 8,000  Level Cleveland Center
Sun 03:50:00 PM 42.4061 -78.6881 172° South 143 165 8,000  Level Cleveland Center
Sun 03:51:03 PM 42.3681 -78.6733 164° South 143 165 8,000  Level Cleveland Center
Sun 03:52:05 PM 42.3306 -78.6533 158° South 143 165 8,000  Level Cleveland Center
Sun 03:53:07 PM 42.2936 -78.6358 161° South 143 165 8,000  Level Cleveland Center
Sun 03:54:09 PM 42.2561 -78.6211 164° South 143 165 8,000  Level Cleveland Center
Sun 03:55:11 PM 42.2122 -78.5967 158° South 143 165 8,000  Level Cleveland Center
Sun 03:56:13 PM 42.1739 -78.5903 173° South 143 165 8,000  Level Cleveland Center
Sun 03:57:15 PM 42.1372 -78.5706 158° South 143 165 8,000  Level Cleveland Center
Sun 03:58:17 PM 42.0997 -78.5522 160° South 143 165 8,000  Level Cleveland Center
Sun 03:59:19 PM 42.0536 -78.5308 161° South 143 165 8,000  Level Cleveland Center
Sun 04:00:21 PM 42.0167 -78.5117 159° South 143 165 8,000  Level Cleveland Center
Sun 04:01:25 PM 41.9789 -78.4939 161° South 143 165 8,000  Level Cleveland Center
Sun 04:02:26 PM 41.9403 -78.4775 162° South 144 166 8,000 -49 Level Cleveland Center
Sun 04:03:28 PM 41.9031 -78.4547 156° South 144 166 7,900 -48 Descending Cleveland Center
Sun 04:04:30 PM 41.8572 -78.4344 162° South 145 167 7,900  Level Cleveland Center
Sun 04:05:32 PM 41.8189 -78.4169 161° South 145 167 7,900  Level Cleveland Center
Sun 04:06:34 PM 41.7808 -78.3986 160° South 145 167 7,900  Level Cleveland Center
Sun 04:07:36 PM 41.7439 -78.3794 159° South 145 167 7,900  Level Cleveland Center
Sun 04:08:38 PM 41.7064 -78.3589 158° South 145 167 7,900  Level Cleveland Center
Sun 04:09:40 PM 41.6594 -78.3369 161° South 146 168 7,900  Level Cleveland Center
Sun 04:10:42 PM 41.6208 -78.3200 162° South 146 168 7,900  Level Cleveland Center
Sun 04:11:44 PM 41.5814 -78.3028 162° South 146 168 7,900  Level Cleveland Center
Sun 04:12:46 PM 41.5425 -78.2847 161° South 146 168 7,900  Level Cleveland Center
Sun 04:13:48 PM 41.5033 -78.2694 164° South 146 168 7,900 48 Level Cleveland Center
Sun 04:14:50 PM 41.4647 -78.2514 161° South 147 169 8,000 48 Climbing Cleveland Center
Sun 04:15:53 PM 41.4183 -78.2269 158° South 147 169 8,000  Level Cleveland Center
Sun 04:16:55 PM 41.3792 -78.2122 164° South 147 169 8,000  Level Cleveland Center
Sun 04:17:57 PM 41.3408 -78.1961 162° South 147 169 8,000  Level Cleveland Center
Sun 04:18:59 PM 41.3033 -78.1756 158° South 147 169 8,000  Level Cleveland Center
Sun 04:20:01 PM 41.2650 -78.1556 159° South 147 169 8,000  Level Cleveland Center
Sun 04:21:03 PM 41.2278 -78.1136 140° Southeast 147 169 8,000 48 Level Cleveland Center
Sun 04:22:05 PM 41.1992 -78.0769 136° Southeast 147 169 8,100  Climbing Cleveland Center
Sun 04:23:08 PM 41.1706 -78.0381 134° Southeast 146 168 8,000 -48 Descending Cleveland Center
Sun 04:24:09 PM 41.1378 -78.0083 146° Southeast 146 168 8,000  Level Cleveland Center
Sun 04:25:11 PM 41.1069 -77.9764 142° Southeast 145 167 8,000  Level Cleveland Center
Sun 04:26:14 PM 41.0783 -77.9394 136° Southeast 144 166 8,000  Level Cleveland Center
Sun 04:27:16 PM 41.0425 -77.9017 142° Southeast 141 162 8,000 48 Level Cleveland Center
Sun 04:28:18 PM 41.0114 -77.8667 140° Southeast 142 163 8,100  Climbing Cleveland Center
Sun 04:30:28 PM 40.9469 -77.7908 138° Southeast 145 167 8,000 -32 Descending New York Center
Sun 04:31:28 PM 40.9133 -77.7625 147° Southeast 145 167 8,000  Level New York Center
Sun 04:32:28 PM 40.8867 -77.7214 131° Southeast 145 167 8,000 50 Level New York Center
Sun 04:33:28 PM 40.8572 -77.6881 139° Southeast 145 167 8,100 50 Climbing New York Center
Sun 04:34:28 PM 40.8278 -77.6578 142° Southeast 150 173 8,100 -50 Level New York Center
Sun 04:35:28 PM 40.7942 -77.6242 143° Southeast 150 173 8,000 -100 Descending New York Center
Sun 04:36:28 PM 40.7628 -77.5936 144° Southeast 150 173 7,900 50 Descending New York Center
Sun 04:37:28 PM 40.7292 -77.5600 143° Southeast 145 167 8,100 -248 Climbing New York Center
Sun 04:38:29 PM 40.7019 -77.5244 135° Southeast 145 167 7,400 -600 Descending New York Center
Sun 04:39:28 PM 40.6722 -77.4969 145° Southeast 145 167 6,900 -150 Descending New York Center
Sun 04:40:29 PM 40.6511 -77.4647 131° Southeast 139 160 7,100 50 Climbing New York Center
Sun 04:41:28 PM 40.6261 -77.4297 133° Southeast 134 154 7,000  Descending New York Center
Sun 04:42:28 PM 40.5986 -77.3969 138° Southeast 134 154 7,100 100 Climbing New York Center
Sun 04:43:28 PM 40.5753 -77.3672 136° Southeast 134 154 7,200 350 Climbing New York Center
Sun 04:44:28 PM 40.5497 -77.3403 141° Southeast 123 142 7,800 400 Climbing New York Center
Sun 04:45:28 PM 40.5239 -77.3186 147° Southeast 123 142 8,000 150 Climbing New York Center
Sun 04:46:28 PM 40.4903 -77.2853 143° Southeast 131 151 8,100  Climbing New York Center
Sun 04:47:28 PM 40.4647 -77.2558 139° Southeast 136 157 8,000 -50 Descending New York Center
Sun 04:48:28 PM 40.4294 -77.2169 140° Southeast 148 170 8,000  Level New York Center
Sun 04:49:28 PM 40.4017 -77.1925 146° Southeast 148 170 8,000 50 Level New York Center
Sun 04:50:28 PM 40.3703 -77.1542 137° Southeast 148 170 8,100 -50 Climbing New York Center
Sun 04:51:28 PM 40.3453 -77.1164 131° Southeast 143 165 7,900 -200 Descending New York Center
Sun 04:53:00 PM 40.3022 -77.0691 140° Southeast  Level FlightAware Approximate
Sun 05:00:00 PM 40.2249 -76.7493 102° East  Level FlightAware Approximate
Sun 05:01:00 PM 40.2171 -76.7023 102° East  Level FlightAware Approximate
Sun 05:02:00 PM 40.2005 -76.6596 118° Southeast  Level FlightAware Approximate
Sun 05:03:00 PM 40.1835 -76.6171 118° Southeast  Level FlightAware Approximate
Sun 05:04:00 PM 40.1760 -76.5706 108° East  Level FlightAware Approximate
Sun 05:05:00 PM 40.1646 -76.5250 108° East  Level FlightAware Approximate
Sun 05:06:00 PM 40.1532 -76.4794 108° East  Level FlightAware Approximate
Sun 05:07:00 PM 40.1444 -76.4329 102° East  Level FlightAware Approximate
Sun 05:08:00 PM 40.1366 -76.3861 102° East  Level FlightAware Approximate
Sun 05:09:00 PM 40.1279 -76.3395 105° East  Level FlightAware Approximate
Sun 05:10:00 PM 40.1186 -76.2931 105° East  Level FlightAware Approximate
Sun 05:11:00 PM 40.1167 -76.2833 105° East  Level FlightAware Approximate
Sun 05:12:00 PM 40.1224 -76.2944 217° Southwest  Level Estimated
Sun 05:13:00 PM 40.1224 -76.2944 105° East  Level Estimated
Sun 05:14:00 PM 40.1224 -76.2944 124° Southeast  Level Estimated
Sun 05:15:00 PM 40.1224 -76.2944 105° East  Level Estimated
Sun 05:16:00 PM 40.1224 -76.2944 124° Southeast  Level Estimated
Sun 05:17:00 PM 40.1224 -76.2944 105° East  Level Estimated
Sun 05:18:00 PM 40.1224 -76.2944 124° Southeast  Level Estimated
Sun 05:19:00 PM 40.1224 -76.2944 105° East  Level Estimated
Sun 05:20:00 PM 40.1224 -76.2944 124° Southeast  Level Estimated
Sun 05:21:00 PM 40.1224 -76.2944 105° East  Level Estimated
Sun 05:22:00 PM 40.1224 -76.2944 124° Southeast  Level Estimated
Sun 05:23:00 PM 40.1224 -76.2944 105° East  Level Estimated
Sun 05:24:00 PM 40.1224 -76.2944 124° Southeast  Level Estimated
Sun 05:25:00 PM 40.1224 -76.2944 105° East  Level Estimated

Login

Don't have an account? Register now (free) for customized features, flight alerts, and more!